createdAt,value
2023-02-19T00:02:06.947Z,4.81
2023-02-19T00:05:05.607Z,4.85
2023-02-19T00:07:32.512Z,4.74
2023-02-19T00:09:59.518Z,4.80
2023-02-19T00:12:46.951Z,4.50
2023-02-19T00:15:47.939Z,4.56
2023-02-19T00:18:49.946Z,4.74
2023-02-19T00:21:50.906Z,4.70
2023-02-19T00:24:31.569Z,4.78
2023-02-19T00:26:58.492Z,4.80
2023-02-19T00:29:25.643Z,4.52
2023-02-19T00:31:52.671Z,4.74
2023-02-19T00:34:19.670Z,4.75
2023-02-19T00:36:46.626Z,4.03
2023-02-19T00:39:33.929Z,4.31
2023-02-19T00:42:35.912Z,4.31
2023-02-19T00:45:38.927Z,4.30
2023-02-19T00:48:29.948Z,4.57
2023-02-19T00:51:10.870Z,4.39
2023-02-19T00:53:38.049Z,4.31
2023-02-19T00:56:05.355Z,3.97
2023-02-19T00:58:32.325Z,4.43
2023-02-19T01:00:59.408Z,4.39
2023-02-19T01:03:26.661Z,4.17
2023-02-19T01:05:54.580Z,4.16
2023-02-19T01:08:42.954Z,4.39
2023-02-19T01:11:23.511Z,4.34
2023-02-19T01:13:50.486Z,4.41
2023-02-19T01:16:37.985Z,4.37
2023-02-19T01:19:32.385Z,4.32
2023-02-19T01:22:25.955Z,4.30
2023-02-19T01:25:07.223Z,4.18
2023-02-19T01:27:34.259Z,3.99
2023-02-19T01:30:01.355Z,4.26
2023-02-19T01:32:28.331Z,4.26
2023-02-19T01:34:55.294Z,4.01
2023-02-19T01:37:24.148Z,3.92
2023-02-19T01:39:51.188Z,4.13
2023-02-19T01:42:18.080Z,3.76
2023-02-19T01:44:45.319Z,4.30
2023-02-19T01:47:32.958Z,3.79
2023-02-19T01:50:13.847Z,4.12
2023-02-19T01:52:41.381Z,3.73
2023-02-19T01:55:12.510Z,3.95
2023-02-19T01:57:45.355Z,4.08
2023-02-19T02:00:15.745Z,4.02
2023-02-19T02:03:05.969Z,3.93
2023-02-19T02:05:56.016Z,3.88
2023-02-19T02:08:42.515Z,3.67
2023-02-19T02:11:10.111Z,3.77
2023-02-19T02:13:40.355Z,3.96
2023-02-19T02:16:52.993Z,3.83
2023-02-19T02:20:11.978Z,3.94
2023-02-19T02:23:24.248Z,3.86
2023-02-19T02:25:54.876Z,3.95
2023-02-19T02:28:39.581Z,3.99
2023-02-19T02:31:25.823Z,3.57
2023-02-19T02:34:12.303Z,3.61
2023-02-19T02:36:44.693Z,3.80
2023-02-19T02:39:38.998Z,3.61
2023-02-19T02:42:40.036Z,3.44
2023-02-19T02:45:41.615Z,3.28
2023-02-19T02:48:47.080Z,3.59
2023-02-19T02:51:21.209Z,3.20
2023-02-19T02:54:34.949Z,3.31
2023-02-19T02:57:09.559Z,3.31
2023-02-19T03:00:02.976Z,3.44
2023-02-19T03:02:44.164Z,3.25
2023-02-19T03:05:38.792Z,3.34
2023-02-19T03:08:19.512Z,3.30
2023-02-19T03:11:28.847Z,3.00
2023-02-19T03:14:25.166Z,3.31
2023-02-19T03:17:38.032Z,3.12
2023-02-19T03:20:41.195Z,3.54
2023-02-19T03:23:44.638Z,3.37
2023-02-19T03:26:12.935Z,3.10
2023-02-19T03:29:08.568Z,3.25
2023-02-19T03:31:39.918Z,3.25
2023-02-19T03:34:14.486Z,3.29
2023-02-19T03:36:52.570Z,3.11
2023-02-19T03:39:22.423Z,3.37
2023-02-19T03:42:00.339Z,3.31
2023-02-19T03:45:11.024Z,2.97
2023-02-19T03:48:12.027Z,3.08
2023-02-19T03:51:23.834Z,2.87
2023-02-19T03:53:54.521Z,2.97
2023-02-19T03:56:45.048Z,2.86
2023-02-19T03:59:37.613Z,2.91
2023-02-19T04:02:19.699Z,3.00
2023-02-19T04:05:10.979Z,3.04
2023-02-19T04:07:45.076Z,2.38
2023-02-19T04:10:14.619Z,2.42
2023-02-19T04:13:01.500Z,2.65
2023-02-19T04:15:33.814Z,2.78
2023-02-19T04:18:27.053Z,2.59
2023-02-19T04:21:29.067Z,2.26
2023-02-19T04:24:19.458Z,2.36
2023-02-19T04:26:46.544Z,2.31
2023-02-19T04:29:34.087Z,2.34
2023-02-19T04:32:14.761Z,1.98
2023-02-19T04:34:41.769Z,1.86
2023-02-19T04:37:29.055Z,1.93
2023-02-19T04:40:10.454Z,1.92
2023-02-19T04:42:37.549Z,1.50
2023-02-19T04:45:04.745Z,2.19
2023-02-19T04:47:32.771Z,2.02
2023-02-19T04:49:59.702Z,1.57
2023-02-19T04:52:26.689Z,2.33
2023-02-19T04:54:53.557Z,2.07
2023-02-19T04:57:20.504Z,2.09
2023-02-19T04:59:47.934Z,1.86
2023-02-19T05:02:16.162Z,2.21
2023-02-19T05:04:45.297Z,1.82
2023-02-19T05:07:12.456Z,1.93
2023-02-19T05:09:59.052Z,1.88
2023-02-19T05:13:00.108Z,1.67
2023-02-19T05:15:40.732Z,2.11
2023-02-19T05:18:28.104Z,1.86
2023-02-19T05:21:29.059Z,2.00
2023-02-19T05:24:09.674Z,1.98
2023-02-19T05:26:36.761Z,1.98
2023-02-19T05:29:04.111Z,2.10
2023-02-19T05:31:35.833Z,1.73
2023-02-19T05:34:14.227Z,1.88
2023-02-19T05:36:41.663Z,2.27
2023-02-19T05:39:11.433Z,2.00
2023-02-19T05:41:58.083Z,2.03
2023-02-19T05:44:51.692Z,2.20
2023-02-19T05:47:18.573Z,2.22
2023-02-19T05:49:45.452Z,1.99
2023-02-19T05:52:13.433Z,1.92
2023-02-19T05:54:40.464Z,1.83
2023-02-19T05:57:08.751Z,1.35
2023-02-19T05:59:36.072Z,1.51
2023-02-19T06:02:03.045Z,1.43
2023-02-19T06:04:30.144Z,1.45
2023-02-19T06:06:57.082Z,1.44
2023-02-19T06:09:26.409Z,1.21
2023-02-19T06:11:54.611Z,1.45
2023-02-19T06:14:42.099Z,1.37
2023-02-19T06:17:46.239Z,1.35
2023-02-19T06:20:48.740Z,1.69
2023-02-19T06:23:29.670Z,1.84
2023-02-19T06:26:07.902Z,1.42
2023-02-19T06:28:35.210Z,1.86
2023-02-19T06:31:02.238Z,1.74
2023-02-19T06:33:29.869Z,1.45
2023-02-19T06:36:02.094Z,1.50
2023-02-19T06:38:30.082Z,1.25
2023-02-19T06:41:01.631Z,1.51
2023-02-19T06:43:49.161Z,1.85
2023-02-19T06:46:29.875Z,1.98
2023-02-19T06:48:56.835Z,1.73
2023-02-19T06:51:27.565Z,1.85
2023-02-19T06:53:54.609Z,1.90
2023-02-19T06:56:31.190Z,1.93
2023-02-19T06:59:21.107Z,2.29
2023-02-19T07:02:01.664Z,2.48
2023-02-19T07:04:28.686Z,2.61
2023-02-19T07:06:55.611Z,3.49
2023-02-19T07:09:23.480Z,3.12
2023-02-19T07:11:50.412Z,2.12
2023-02-19T07:14:17.669Z,2.39
2023-02-19T07:17:05.174Z,2.11
2023-02-19T07:20:06.141Z,2.69
2023-02-19T07:22:51.296Z,3.28
2023-02-19T07:25:18.267Z,3.74
2023-02-19T07:27:45.209Z,3.65
2023-02-19T07:30:12.480Z,3.58
2023-02-19T07:32:42.779Z,3.85
2023-02-19T07:35:09.813Z,4.38
2023-02-19T07:37:57.160Z,4.20
2023-02-19T07:40:38.002Z,4.14
2023-02-19T07:43:05.018Z,4.50
2023-02-19T07:45:32.046Z,4.14
2023-02-19T07:47:59.165Z,4.32
2023-02-19T07:50:26.087Z,4.80
2023-02-19T07:52:53.080Z,4.90
2023-02-19T07:55:20.027Z,4.81
2023-02-19T07:57:46.921Z,5.29
2023-02-19T08:00:14.223Z,5.02
2023-02-19T08:03:00.210Z,4.74
2023-02-19T08:05:36.889Z,4.78
2023-02-19T08:08:07.032Z,4.36
2023-02-19T08:11:12.433Z,4.71
2023-02-19T08:13:53.512Z,5.22
2023-02-19T08:16:43.385Z,5.60
2023-02-19T08:19:44.147Z,6.10
2023-02-19T08:22:45.281Z,6.29
2023-02-19T08:25:16.383Z,6.48
2023-02-19T08:27:43.328Z,7.08
2023-02-19T08:30:10.846Z,5.95
2023-02-19T08:32:37.781Z,5.62
2023-02-19T08:35:05.191Z,6.07
2023-02-19T08:37:33.470Z,5.68
2023-02-19T08:40:00.354Z,5.81
2023-02-19T08:42:47.197Z,6.16
2023-02-19T08:45:27.873Z,6.41
2023-02-19T08:47:54.791Z,6.22
2023-02-19T08:50:22.581Z,6.31
2023-02-19T08:52:49.458Z,6.71
2023-02-19T08:55:16.396Z,7.05
2023-02-19T08:57:43.393Z,7.75
2023-02-19T09:00:11.368Z,8.13
2023-02-19T09:02:38.339Z,8.38
2023-02-19T09:05:08.783Z,8.80
2023-02-19T09:07:50.316Z,8.53
2023-02-19T09:10:31.031Z,8.80
2023-02-19T09:12:58.065Z,9.10
2023-02-19T09:15:25.032Z,9.14
2023-02-19T09:18:12.185Z,8.65
2023-02-19T09:21:19.200Z,9.24
2023-02-19T09:24:00.197Z,9.75
2023-02-19T09:26:27.245Z,9.11
2023-02-19T09:28:54.846Z,9.42
2023-02-19T09:31:21.920Z,9.50
2023-02-19T09:33:49.030Z,9.78
2023-02-19T09:36:17.063Z,9.83
2023-02-19T09:38:44.366Z,9.81
2023-02-19T09:41:23.881Z,9.70
2023-02-19T09:43:51.293Z,10.17
2023-02-19T09:46:27.632Z,10.19
2023-02-19T09:49:18.414Z,10.08
2023-02-19T09:52:10.222Z,9.82
2023-02-19T09:54:51.720Z,9.54
2023-02-19T09:57:21.494Z,9.34
2023-02-19T09:59:51.853Z,8.92
2023-02-19T10:02:24.422Z,8.87
2023-02-19T10:04:52.761Z,9.84
2023-02-19T10:07:22.026Z,10.08
2023-02-19T10:09:55.811Z,10.65
2023-02-19T10:12:28.611Z,11.17
2023-02-19T10:15:25.256Z,10.94
2023-02-19T10:18:26.244Z,10.58
2023-02-19T10:21:37.576Z,10.22
2023-02-19T10:24:25.878Z,11.30
2023-02-19T10:26:56.308Z,10.89
2023-02-19T10:29:24.856Z,11.37
2023-02-19T10:32:12.913Z,11.19
2023-02-19T10:34:39.966Z,10.56
2023-02-19T10:37:13.610Z,10.22
2023-02-19T10:39:50.849Z,10.59
2023-02-19T10:42:23.347Z,10.16
2023-02-19T10:44:55.732Z,10.42
2023-02-19T10:48:00.266Z,10.18
2023-02-19T10:51:06.253Z,10.36
2023-02-19T10:54:12.433Z,10.84
2023-02-19T10:57:15.763Z,10.51
2023-02-19T10:59:51.408Z,11.00
2023-02-19T11:02:21.700Z,10.88
2023-02-19T11:05:19.995Z,10.93
2023-02-19T11:08:24.405Z,10.90
2023-02-19T11:11:06.964Z,11.33
2023-02-19T11:13:38.098Z,11.24
2023-02-19T11:16:18.452Z,11.63
2023-02-19T11:19:19.361Z,11.79
2023-02-19T11:22:02.459Z,11.71
2023-02-19T11:24:37.649Z,11.91
2023-02-19T11:27:06.727Z,11.51
2023-02-19T11:29:36.972Z,11.96
2023-02-19T11:32:27.562Z,11.60
2023-02-19T11:35:15.468Z,11.67
2023-02-19T11:37:56.918Z,12.72
2023-02-19T11:40:35.573Z,11.96
2023-02-19T11:43:35.031Z,11.90
2023-02-19T11:46:40.704Z,11.74
2023-02-19T11:49:36.300Z,11.83
2023-02-19T11:52:55.299Z,12.27
2023-02-19T11:56:07.004Z,12.69
2023-02-19T11:58:43.206Z,12.52
2023-02-19T12:01:22.363Z,12.81
2023-02-19T12:04:02.324Z,13.06
2023-02-19T12:06:51.651Z,12.61
2023-02-19T12:09:21.485Z,12.89
2023-02-19T12:12:26.063Z,13.48
2023-02-19T12:14:58.809Z,12.98
2023-02-19T12:18:09.319Z,12.52
2023-02-19T12:21:40.312Z,12.84
2023-02-19T12:24:59.108Z,13.24
2023-02-19T12:27:34.815Z,13.41
2023-02-19T12:30:28.103Z,13.34
2023-02-19T12:33:11.636Z,13.14
2023-02-19T12:36:30.400Z,13.45
2023-02-19T12:39:32.820Z,12.88
2023-02-19T12:58:17.844Z,14.32
2023-02-19T13:10:18.237Z,14.18
2023-02-19T13:12:49.419Z,14.49
2023-02-19T13:36:15.006Z,14.37
2023-02-19T13:48:40.711Z,14.40
2023-02-19T13:51:21.688Z,14.37
2023-02-19T13:53:57.442Z,14.49
2023-02-19T13:56:36.551Z,14.47
2023-02-19T13:59:13.674Z,14.71
2023-02-19T14:01:49.918Z,14.70
2023-02-19T14:04:25.813Z,14.53
2023-02-19T14:07:12.865Z,14.63
2023-02-19T14:09:45.707Z,14.62
2023-02-19T14:12:29.349Z,14.82
2023-02-19T14:15:55.378Z,14.92
2023-02-19T14:18:57.369Z,14.94
2023-02-19T14:21:44.095Z,14.85
2023-02-19T14:24:16.274Z,14.81
2023-02-19T14:26:43.618Z,14.45
2023-02-19T14:29:14.756Z,14.81
2023-02-19T14:31:45.991Z,14.88
2023-02-19T14:34:22.964Z,14.01
2023-02-19T14:37:01.733Z,14.10
2023-02-19T14:39:40.482Z,14.45
2023-02-19T14:42:16.880Z,14.30
2023-02-19T14:44:52.445Z,14.18
2023-02-19T14:47:25.560Z,14.12
2023-02-19T14:50:16.365Z,14.21
2023-02-19T14:53:04.802Z,13.47
2023-02-19T14:55:42.785Z,14.01
2023-02-19T14:58:47.357Z,14.02
2023-02-19T15:01:42.423Z,13.87
2023-02-19T15:04:49.413Z,13.95
2023-02-19T15:07:51.912Z,13.86
2023-02-19T15:10:39.286Z,13.83
2023-02-19T15:13:12.399Z,13.78
2023-02-19T15:15:45.212Z,13.91
2023-02-19T15:18:36.502Z,13.77
2023-02-19T15:21:46.449Z,13.56
2023-02-19T15:24:28.305Z,13.38
2023-02-19T15:27:15.605Z,13.50
2023-02-19T15:29:56.070Z,13.38
2023-02-19T15:32:28.417Z,13.53
2023-02-19T15:34:58.275Z,13.07
2023-02-19T15:37:49.479Z,13.27
2023-02-19T15:40:31.565Z,13.25
2023-02-19T15:43:00.905Z,13.16
2023-02-19T15:45:47.374Z,13.07
2023-02-19T15:48:23.067Z,12.98
2023-02-19T15:50:57.098Z,13.04
2023-02-19T15:53:29.690Z,12.97
2023-02-19T15:56:09.766Z,12.65
2023-02-19T15:59:14.416Z,12.59
2023-02-19T16:01:55.204Z,12.53
2023-02-19T16:04:22.445Z,12.48
2023-02-19T16:06:55.558Z,12.64
2023-02-19T16:09:28.901Z,12.41
2023-02-19T16:11:58.550Z,12.43
2023-02-19T16:14:36.632Z,12.40
2023-02-19T16:17:23.443Z,12.35
2023-02-19T16:20:38.427Z,12.29
2023-02-19T16:23:24.197Z,11.97
2023-02-19T16:26:04.742Z,11.86
2023-02-19T16:28:37.982Z,10.67
2023-02-19T16:31:24.908Z,11.60
2023-02-19T16:34:30.215Z,11.88
2023-02-19T16:36:57.241Z,11.75
2023-02-19T16:39:24.788Z,11.70
2023-02-19T16:41:51.599Z,11.71
2023-02-19T16:44:21.499Z,11.66
2023-02-19T16:46:54.939Z,11.60
2023-02-19T16:49:23.648Z,11.23
2023-02-19T16:51:51.905Z,11.16
2023-02-19T16:54:19.865Z,11.52
2023-02-19T16:57:02.721Z,11.08
2023-02-19T16:59:43.279Z,10.97
2023-02-19T17:02:17.747Z,11.04
2023-02-19T17:05:05.285Z,10.70
2023-02-19T17:08:06.553Z,10.68
2023-02-19T17:10:51.713Z,11.03
2023-02-19T17:20:59.508Z,10.86
2023-02-19T17:45:43.926Z,10.06
2023-02-19T17:49:17.864Z,8.29
2023-02-19T17:53:30.918Z,10.19
2023-02-19T17:56:27.971Z,8.19
2023-02-19T18:03:19.656Z,8.46
2023-02-19T18:06:29.516Z,8.23
2023-02-19T18:12:40.814Z,8.48
2023-02-19T18:19:34.906Z,8.45
2023-02-19T18:22:48.057Z,8.58
2023-02-19T18:25:16.448Z,9.18
2023-02-19T18:27:43.758Z,9.01
2023-02-19T18:30:11.920Z,8.84
2023-02-19T18:32:39.104Z,8.83
2023-02-19T18:35:39.054Z,8.84
2023-02-19T18:38:06.494Z,8.72
2023-02-19T18:40:33.440Z,8.50
2023-02-19T18:43:00.509Z,7.98
2023-02-19T18:45:29.682Z,7.73
2023-02-19T18:47:56.832Z,7.30
2023-02-19T18:50:24.050Z,8.89
2023-02-19T18:52:51.616Z,8.22
2023-02-19T18:55:31.625Z,8.96
2023-02-19T18:58:26.545Z,8.61
2023-02-19T19:01:08.569Z,8.92
2023-02-19T19:03:35.573Z,8.84
2023-02-19T19:06:02.706Z,8.75
2023-02-19T19:08:30.762Z,8.98
2023-02-19T19:10:57.751Z,8.85
2023-02-19T19:13:25.519Z,8.49
2023-02-19T19:15:52.479Z,8.73
2023-02-19T19:18:39.561Z,8.92
2023-02-19T19:21:40.541Z,8.66
2023-02-19T19:24:22.921Z,8.79
2023-02-19T19:26:51.143Z,8.63
2023-02-19T19:29:22.095Z,8.97
2023-02-19T19:31:50.130Z,8.33
2023-02-19T19:34:17.792Z,8.75
2023-02-19T19:36:45.602Z,8.15
2023-02-19T19:39:13.269Z,8.12
2023-02-19T19:41:40.424Z,7.81
2023-02-19T19:44:08.737Z,8.60
2023-02-19T19:46:42.370Z,8.49
2023-02-19T19:49:33.560Z,8.31
2023-02-19T19:52:34.603Z,8.18
2023-02-19T19:55:16.181Z,7.87
2023-02-19T19:57:43.247Z,7.88
2023-02-19T20:00:14.692Z,7.95
2023-02-19T20:02:41.683Z,7.35
2023-02-19T20:05:08.673Z,7.77
2023-02-19T20:07:35.656Z,7.61
2023-02-19T20:10:02.577Z,7.67
2023-02-19T20:12:29.494Z,7.86
2023-02-19T20:15:16.554Z,7.67
2023-02-19T20:18:17.581Z,7.47
2023-02-19T20:21:18.567Z,7.62
2023-02-19T20:23:59.122Z,7.69
2023-02-19T20:26:28.480Z,7.75
2023-02-19T20:28:55.940Z,7.15
2023-02-19T20:31:23.291Z,7.53
2023-02-19T20:33:51.201Z,7.53
2023-02-19T20:36:20.184Z,7.54
2023-02-19T20:38:49.442Z,5.86
2023-02-19T20:41:16.567Z,7.19
2023-02-19T20:44:03.569Z,6.29
2023-02-19T20:47:05.587Z,7.06
2023-02-19T20:50:06.577Z,7.41
2023-02-19T20:52:47.209Z,7.05
2023-02-19T20:55:14.131Z,7.00
2023-02-19T20:57:41.188Z,7.28
2023-02-19T21:00:09.557Z,6.46
2023-02-19T21:02:36.610Z,7.25
2023-02-19T21:05:04.488Z,7.12
2023-02-19T21:07:31.455Z,6.91
2023-02-19T21:09:58.323Z,6.44
2023-02-19T21:12:25.244Z,6.88
2023-02-19T21:14:52.372Z,6.09
2023-02-19T21:17:39.613Z,7.10
2023-02-19T21:20:40.615Z,6.80
2023-02-19T21:23:21.080Z,6.89
2023-02-19T21:25:49.116Z,6.83
2023-02-19T21:28:16.098Z,6.62
2023-02-19T21:30:43.026Z,6.46
2023-02-19T21:33:09.991Z,6.91
2023-02-19T21:35:56.602Z,6.92
2023-02-19T21:38:37.194Z,6.64
2023-02-19T21:41:04.602Z,6.18
2023-02-19T21:43:51.606Z,6.70
2023-02-19T21:46:35.085Z,6.46
2023-02-19T21:49:21.614Z,6.97
2023-02-19T21:52:02.236Z,6.54
2023-02-19T21:54:29.142Z,6.54
2023-02-19T21:56:56.076Z,6.46
2023-02-19T21:59:23.578Z,6.18
2023-02-19T22:01:50.821Z,6.13
2023-02-19T22:04:20.839Z,6.00
2023-02-19T22:06:47.825Z,6.47
2023-02-19T22:09:15.055Z,6.69
2023-02-19T22:11:42.116Z,6.79
2023-02-19T22:14:10.261Z,6.62
2023-02-19T22:16:58.632Z,6.45
2023-02-19T22:19:59.670Z,5.69
2023-02-19T22:22:53.344Z,6.40
2023-02-19T22:25:20.257Z,6.19
2023-02-19T22:27:48.958Z,6.12
2023-02-19T22:30:35.769Z,6.32
2023-02-19T22:33:16.244Z,6.27
2023-02-19T22:35:43.304Z,5.82
2023-02-19T22:38:10.335Z,6.69
2023-02-19T22:40:37.476Z,6.28
2023-02-19T22:43:04.434Z,5.90
2023-02-19T22:45:31.514Z,6.74
2023-02-19T22:47:58.407Z,5.76
2023-02-19T22:50:26.606Z,6.77
2023-02-19T22:52:56.401Z,6.47
2023-02-19T22:55:29.213Z,5.20
2023-02-19T22:58:16.629Z,6.42
2023-02-19T23:00:57.331Z,6.51
2023-02-19T23:03:24.529Z,6.65
2023-02-19T23:06:11.842Z,6.56
2023-02-19T23:09:04.051Z,6.20
2023-02-19T23:11:34.517Z,6.74
2023-02-19T23:14:01.764Z,6.75
2023-02-19T23:16:29.568Z,5.96
2023-02-19T23:19:21.657Z,6.30
2023-02-19T23:22:02.260Z,6.28
2023-02-19T23:24:29.305Z,5.85
2023-02-19T23:27:16.661Z,6.04
2023-02-19T23:30:17.669Z,6.14
2023-02-19T23:33:18.653Z,6.37
2023-02-19T23:35:59.260Z,6.44
2023-02-19T23:38:26.158Z,6.24
2023-02-19T23:40:53.094Z,6.40
2023-02-19T23:43:21.155Z,5.37
2023-02-19T23:45:48.273Z,6.08
2023-02-19T23:48:15.401Z,6.27
2023-02-19T23:50:42.270Z,6.33
2023-02-19T23:53:09.566Z,6.28
2023-02-19T23:55:36.562Z,6.11
2023-02-19T23:58:03.469Z,6.18
